createdAt,value
2023-02-24T00:00:39.068Z,12.77
2023-02-24T00:03:47.140Z,16.92
2023-02-24T00:06:51.605Z,22.63
2023-02-24T00:09:56.286Z,20.63
2023-02-24T00:13:01.177Z,19.25
2023-02-24T00:16:06.817Z,17.92
2023-02-24T00:19:14.727Z,24.45
2023-02-24T00:22:18.775Z,17.33
2023-02-24T00:25:23.275Z,12.32
2023-02-24T00:28:29.797Z,23.25
2023-02-24T00:31:34.784Z,15.50
2023-02-24T00:34:39.678Z,20.58
2023-02-24T00:37:44.423Z,33.80
2023-02-24T00:40:48.731Z,34.47
2023-02-24T00:43:52.477Z,51.08
2023-02-24T00:46:56.369Z,38.30
2023-02-24T00:50:00.490Z,34.58
2023-02-24T00:53:04.530Z,15.55
2023-02-24T00:56:12.992Z,58.42
2023-02-24T00:59:19.324Z,15.73
2023-02-24T01:02:23.022Z,34.90
2023-02-24T01:05:34.046Z,23.85
2023-02-24T01:08:48.608Z,44.70
2023-02-24T01:12:26.752Z,46.78
2023-02-24T01:15:30.033Z,49.88
2023-02-24T01:18:32.981Z,51.97
2023-02-24T01:21:36.460Z,30.50
2023-02-24T01:24:43.890Z,52.38
2023-02-24T01:30:50.988Z,42.50
2023-02-24T01:33:56.060Z,53.28
2023-02-24T01:36:59.876Z,38.97
2023-02-24T01:40:22.809Z,53.60
2023-02-24T01:43:26.372Z,38.38
2023-02-24T01:46:40.862Z,11.05
2023-02-24T01:49:50.169Z,23.60
2023-02-24T01:53:00.116Z,24.52
2023-02-24T01:56:03.325Z,17.42
2023-02-24T01:59:06.861Z,16.65
2023-02-24T02:02:11.623Z,13.43
2023-02-24T02:05:16.069Z,15.18
2023-02-24T02:08:21.903Z,20.45
2023-02-24T02:11:25.328Z,13.95
2023-02-24T02:14:30.548Z,15.20
2023-02-24T02:18:10.280Z,17.90
2023-02-24T02:21:41.703Z,15.32
2023-02-24T02:25:01.072Z,20.38
2023-02-24T02:28:32.178Z,20.00
2023-02-24T02:31:42.184Z,18.17
2023-02-24T02:35:11.657Z,21.90
2023-02-24T02:38:26.796Z,22.58
2023-02-24T02:41:39.882Z,21.75
2023-02-24T02:45:15.108Z,20.80
2023-02-24T02:48:21.576Z,16.48
2023-02-24T02:51:39.204Z,19.73
2023-02-24T02:57:50.076Z,16.27
2023-02-24T03:01:04.859Z,20.70
2023-02-24T03:04:12.685Z,18.35
2023-02-24T03:07:18.694Z,25.92
2023-02-24T03:10:35.002Z,25.83
2023-02-24T03:13:44.128Z,20.40
2023-02-24T03:16:51.012Z,23.75
2023-02-24T03:20:17.725Z,21.95
2023-02-24T03:23:27.404Z,24.15
2023-02-24T03:26:50.701Z,25.45
2023-02-24T03:30:16.776Z,22.63
2023-02-24T03:33:30.998Z,24.73
2023-02-24T03:36:34.737Z,24.98
2023-02-24T03:39:40.973Z,24.90
2023-02-24T03:43:05.802Z,21.92
2023-02-24T03:46:09.888Z,17.48
2023-02-24T03:49:17.262Z,20.52
2023-02-24T03:52:42.949Z,17.20
2023-02-24T03:55:46.467Z,20.10
2023-02-24T03:58:55.920Z,21.33
2023-02-24T04:02:09.729Z,24.10
2023-02-24T04:05:25.896Z,21.67
2023-02-24T04:08:49.418Z,20.67
2023-02-24T04:11:59.595Z,21.15
2023-02-24T04:15:18.474Z,16.42
2023-02-24T04:18:25.031Z,18.17
2023-02-24T04:21:31.832Z,13.77
2023-02-24T04:24:38.452Z,15.35
2023-02-24T04:27:43.107Z,15.35
2023-02-24T04:30:58.259Z,12.95
2023-02-24T04:34:02.645Z,16.67
2023-02-24T04:37:14.642Z,16.55
2023-02-24T04:40:22.609Z,18.90
2023-02-24T04:46:35.750Z,19.25
2023-02-24T04:49:42.061Z,20.40
2023-02-24T04:52:45.633Z,15.13
2023-02-24T04:59:22.841Z,20.55
2023-02-24T05:02:26.823Z,15.38
2023-02-24T05:05:29.928Z,16.90
2023-02-24T05:08:34.390Z,17.95
2023-02-24T05:11:37.382Z,18.13
2023-02-24T05:14:40.352Z,16.98
2023-02-24T05:17:43.655Z,19.40
2023-02-24T05:21:11.874Z,20.40
2023-02-24T05:24:18.150Z,19.77
2023-02-24T05:27:22.020Z,16.65
2023-02-24T05:30:25.610Z,18.42
2023-02-24T05:33:29.883Z,16.90
2023-02-24T05:36:39.546Z,15.57
2023-02-24T05:39:42.657Z,17.70
2023-02-24T05:42:46.553Z,13.88
2023-02-24T05:45:50.027Z,11.23
2023-02-24T05:48:57.257Z,10.50
2023-02-24T05:52:08.602Z,10.23
2023-02-24T05:55:14.572Z,9.82
2023-02-24T05:58:17.874Z,9.60
2023-02-24T06:01:22.307Z,9.30
2023-02-24T06:04:39.897Z,9.55
2023-02-24T06:07:43.726Z,9.98
2023-02-24T06:10:48.041Z,8.27
2023-02-24T06:13:52.794Z,8.75
2023-02-24T06:16:55.938Z,8.88
2023-02-24T06:20:00.205Z,8.13
2023-02-24T06:23:06.414Z,9.18
2023-02-24T06:26:19.909Z,8.00
2023-02-24T06:29:25.602Z,7.95
2023-02-24T06:32:31.287Z,8.18
2023-02-24T06:35:35.244Z,6.72
2023-02-24T07:03:22.847Z,6.55
2023-02-24T07:09:48.411Z,7.60
2023-02-24T07:13:03.379Z,9.00
2023-02-24T07:16:09.094Z,7.70
2023-02-24T07:19:15.476Z,7.70
2023-02-24T07:22:26.669Z,5.20
2023-02-24T07:55:48.544Z,6.80
2023-02-24T08:45:12.298Z,13.45
2023-02-24T08:48:32.369Z,15.63
2023-02-24T08:55:02.373Z,12.75
2023-02-24T08:58:12.378Z,9.90
2023-02-24T09:01:26.608Z,8.95
2023-02-24T09:04:30.323Z,8.63
2023-02-24T09:07:42.407Z,10.50
2023-02-24T09:10:47.085Z,11.90
2023-02-24T09:13:52.734Z,11.35
2023-02-24T09:17:11.921Z,10.25
2023-02-24T09:20:28.506Z,9.85
2023-02-24T09:23:47.360Z,11.13
2023-02-24T09:26:59.351Z,15.00
2023-02-24T09:30:08.630Z,7.15
2023-02-24T09:33:22.642Z,10.23
2023-02-24T09:36:30.613Z,9.23
2023-02-24T09:39:54.692Z,7.53
2023-02-24T09:42:58.965Z,10.85
2023-02-24T09:46:15.250Z,13.20
2023-02-24T09:49:19.581Z,11.23
2023-02-24T09:52:41.863Z,12.80
2023-02-24T09:56:00.696Z,10.20
2023-02-24T09:59:31.090Z,11.00
2023-02-24T10:03:00.671Z,9.18
2023-02-24T10:06:35.838Z,9.15
2023-02-24T10:10:20.477Z,6.70
2023-02-24T10:13:33.157Z,8.88
2023-02-24T10:16:43.969Z,9.25
2023-02-24T10:19:56.976Z,11.55
2023-02-24T10:23:18.461Z,12.15
2023-02-24T10:26:33.958Z,12.98
2023-02-24T10:29:56.356Z,14.80
2023-02-24T10:33:07.127Z,13.75
2023-02-24T10:36:17.668Z,15.13
2023-02-24T10:39:26.146Z,14.68
2023-02-24T10:42:35.345Z,9.18
2023-02-24T10:45:45.849Z,12.98
2023-02-24T10:49:01.331Z,11.98
2023-02-24T10:52:09.766Z,14.07
2023-02-24T10:55:45.720Z,14.07
2023-02-24T10:59:23.634Z,13.98
2023-02-24T11:02:33.261Z,13.63
2023-02-24T11:06:06.041Z,12.70
2023-02-24T11:09:30.601Z,12.85
2023-02-24T11:13:00.979Z,12.02
2023-02-24T11:16:30.104Z,12.93
2023-02-24T11:19:42.696Z,11.00
2023-02-24T11:22:52.685Z,8.30
2023-02-24T11:26:01.911Z,10.63
2023-02-24T11:29:29.841Z,9.65
2023-02-24T11:32:56.586Z,10.57
2023-02-24T11:36:21.375Z,10.15
2023-02-24T11:39:44.504Z,10.55
2023-02-24T11:42:59.853Z,10.45
2023-02-24T11:46:16.015Z,9.73
2023-02-24T11:49:36.758Z,10.65
2023-02-24T11:52:44.145Z,10.35
2023-02-24T11:55:54.886Z,11.57
2023-02-24T11:59:02.705Z,8.75
2023-02-24T12:02:31.561Z,10.32
2023-02-24T12:05:44.845Z,9.95
2023-02-24T12:08:54.260Z,10.25
2023-02-24T12:12:08.490Z,11.65
2023-02-24T12:15:12.371Z,12.20
2023-02-24T12:18:49.576Z,11.63
2023-02-24T12:21:58.515Z,15.50
2023-02-24T12:25:02.657Z,12.65
2023-02-24T12:28:19.617Z,13.73
2023-02-24T12:31:34.245Z,16.45
2023-02-24T12:34:51.837Z,16.00
2023-02-24T12:41:28.667Z,12.32
2023-02-24T12:44:42.166Z,14.98
2023-02-24T12:48:00.793Z,14.05
2023-02-24T12:51:19.217Z,13.40
2023-02-24T12:54:42.182Z,14.57
2023-02-24T12:57:59.217Z,24.80
2023-02-24T13:01:11.592Z,19.80
2023-02-24T13:04:38.384Z,15.48
2023-02-24T13:08:00.597Z,14.02
2023-02-24T13:11:14.921Z,19.48
2023-02-24T13:14:38.426Z,22.70
2023-02-24T13:17:48.709Z,20.98
2023-02-24T13:21:08.810Z,23.63
2023-02-24T13:24:22.058Z,30.45
2023-02-24T13:27:26.690Z,50.42
2023-02-24T13:30:39.498Z,52.30
2023-02-24T13:33:46.237Z,35.50
2023-02-24T13:36:50.685Z,41.15
2023-02-24T13:39:54.469Z,37.35
2023-02-24T13:43:00.524Z,41.20
2023-02-24T13:46:17.982Z,41.13
2023-02-24T13:49:32.831Z,25.85
2023-02-24T13:53:03.466Z,28.45
2023-02-24T13:56:16.186Z,28.08
2023-02-24T13:59:58.475Z,31.55
2023-02-24T14:03:09.585Z,21.75
2023-02-24T14:06:26.043Z,28.45
2023-02-24T14:09:38.390Z,29.42
2023-02-24T14:12:43.982Z,29.80
2023-02-24T14:15:48.666Z,31.25
2023-02-24T14:18:58.401Z,26.42
2023-02-24T14:22:01.440Z,25.38
2023-02-24T14:25:10.226Z,19.38
2023-02-24T14:28:24.505Z,22.25
2023-02-24T14:31:29.229Z,16.60
2023-02-24T14:34:34.470Z,17.73
2023-02-24T14:37:37.597Z,12.10
2023-02-24T14:40:49.179Z,16.60
2023-02-24T14:43:53.768Z,16.33
2023-02-24T14:46:59.657Z,18.33
2023-02-24T14:50:06.024Z,17.10
2023-02-24T14:53:16.902Z,16.25
2023-02-24T14:56:24.864Z,19.40
2023-02-24T14:59:41.089Z,19.35
2023-02-24T15:02:49.661Z,22.45
2023-02-24T15:05:58.835Z,31.60
2023-02-24T15:09:06.176Z,45.60
2023-02-24T15:12:20.993Z,48.28
2023-02-24T15:15:29.666Z,67.78
2023-02-24T15:18:32.849Z,25.42
2023-02-24T15:21:41.710Z,31.27
2023-02-24T15:24:45.327Z,36.13
2023-02-24T15:27:53.910Z,27.10
2023-02-24T15:31:20.097Z,23.80
2023-02-24T15:34:31.954Z,31.02
2023-02-24T15:37:42.964Z,31.67
2023-02-24T15:40:56.684Z,34.78
2023-02-24T15:43:59.990Z,36.42
2023-02-24T15:47:25.290Z,61.20
2023-02-24T15:50:30.304Z,52.85
2023-02-24T15:53:34.336Z,64.07
2023-02-24T15:56:37.535Z,40.40
2023-02-24T15:59:42.152Z,77.30
2023-02-24T16:02:45.410Z,85.97
2023-02-24T16:05:49.642Z,78.57
2023-02-24T16:08:55.117Z,70.03
2023-02-24T16:11:58.612Z,39.85
2023-02-24T16:15:03.104Z,48.65
2023-02-24T16:18:14.756Z,40.60
2023-02-24T16:21:18.206Z,49.53
2023-02-24T16:24:21.922Z,53.22
2023-02-24T16:27:27.896Z,86.88
2023-02-24T16:30:32.261Z,88.47
2023-02-24T16:33:51.720Z,91.72
2023-02-24T16:36:57.543Z,55.75
2023-02-24T16:40:01.592Z,80.13
2023-02-24T16:43:05.461Z,74.72
2023-02-24T16:46:15.287Z,93.35
2023-02-24T16:49:21.353Z,87.57
2023-02-24T16:52:25.833Z,86.07
2023-02-24T16:55:28.942Z,77.45
2023-02-24T16:58:33.395Z,89.90
2023-02-24T17:01:36.684Z,94.72
2023-02-24T17:04:39.783Z,109.80
2023-02-24T17:07:43.141Z,105.93
2023-02-24T17:10:46.944Z,89.05
2023-02-24T17:13:50.785Z,94.55
2023-02-24T17:16:54.630Z,66.60
2023-02-24T17:19:57.782Z,92.82
2023-02-24T17:23:01.757Z,58.15
2023-02-24T17:26:05.647Z,57.67
2023-02-24T17:29:09.747Z,49.38
2023-02-24T17:32:13.780Z,48.60
2023-02-24T17:35:18.059Z,41.67
2023-02-24T17:38:23.939Z,52.63
2023-02-24T17:41:28.153Z,57.42
2023-02-24T17:44:31.941Z,74.63
2023-02-24T17:47:36.056Z,104.22
2023-02-24T17:50:41.908Z,87.00
2023-02-24T17:53:45.331Z,89.78
2023-02-24T17:56:49.036Z,91.63
2023-02-24T17:59:52.347Z,75.65
2023-02-24T18:02:55.785Z,73.47
2023-02-24T18:06:00.582Z,47.03
2023-02-24T18:09:04.300Z,47.80
2023-02-24T18:12:08.541Z,51.88
2023-02-24T18:15:12.336Z,45.05
2023-02-24T18:18:16.030Z,36.63
2023-02-24T18:21:19.568Z,33.17
2023-02-24T18:24:23.732Z,51.42
2023-02-24T18:27:27.952Z,44.55
2023-02-24T18:30:31.343Z,61.08
2023-02-24T18:33:35.164Z,54.55
2023-02-24T18:36:38.264Z,52.72
2023-02-24T18:39:41.161Z,48.58
2023-02-24T18:42:44.839Z,49.40
2023-02-24T18:45:48.627Z,48.08
2023-02-24T18:48:52.538Z,48.58
2023-02-24T18:51:56.357Z,60.25
2023-02-24T18:54:59.394Z,93.10
2023-02-24T18:58:03.015Z,77.93
2023-02-24T19:01:20.848Z,52.78
2023-02-24T19:07:28.019Z,30.25
2023-02-24T19:10:31.967Z,36.22
2023-02-24T19:13:35.747Z,39.35
2023-02-24T19:16:38.994Z,46.80
2023-02-24T19:19:43.922Z,30.55
2023-02-24T19:22:49.201Z,31.85
2023-02-24T19:25:54.376Z,23.30
2023-02-24T19:28:59.446Z,32.25
2023-02-24T19:32:03.197Z,27.60
2023-02-24T19:35:07.314Z,31.75
2023-02-24T19:38:15.946Z,36.50
2023-02-24T19:41:20.110Z,48.80
2023-02-24T19:44:23.206Z,58.97
2023-02-24T19:47:27.305Z,52.67
2023-02-24T19:50:30.975Z,17.15
2023-02-24T19:53:34.354Z,19.80
2023-02-24T19:56:38.219Z,38.60
2023-02-24T19:59:42.275Z,39.95
2023-02-24T20:02:45.598Z,57.33
2023-02-24T20:05:49.180Z,56.20
2023-02-24T20:08:53.207Z,67.43
2023-02-24T20:11:58.176Z,70.88
2023-02-24T20:15:01.114Z,77.70
2023-02-24T20:18:08.222Z,76.22
2023-02-24T20:21:11.782Z,40.83
2023-02-24T20:24:18.085Z,28.40
2023-02-24T20:27:22.128Z,16.77
2023-02-24T20:30:25.920Z,12.93
2023-02-24T20:33:28.917Z,40.92
2023-02-24T20:36:33.311Z,60.58
2023-02-24T20:39:37.164Z,47.75
2023-02-24T20:42:41.044Z,40.28
2023-02-24T20:45:44.780Z,50.28
2023-02-24T20:48:48.441Z,62.85
2023-02-24T20:51:51.659Z,72.70
2023-02-24T20:54:54.697Z,67.00
2023-02-24T20:57:58.458Z,50.30
2023-02-24T21:01:02.301Z,51.15
2023-02-24T21:04:06.403Z,45.78
2023-02-24T21:07:09.306Z,41.92
2023-02-24T21:10:12.943Z,42.13
2023-02-24T21:13:16.734Z,48.75
2023-02-24T21:16:22.058Z,39.38
2023-02-24T21:19:25.452Z,36.30
2023-02-24T21:22:32.461Z,41.67
2023-02-24T21:25:37.799Z,43.50
2023-02-24T21:28:41.485Z,33.47
2023-02-24T21:31:44.978Z,33.72
2023-02-24T21:34:48.835Z,32.28
2023-02-24T21:37:51.836Z,38.20
2023-02-24T21:40:54.915Z,37.28
2023-02-24T21:44:00.968Z,41.58
2023-02-24T21:47:03.996Z,34.75
2023-02-24T21:50:08.022Z,41.88
2023-02-24T21:53:13.678Z,51.03
2023-02-24T21:56:19.488Z,44.92
2023-02-24T21:59:23.293Z,35.17
2023-02-24T22:02:26.359Z,32.00
2023-02-24T22:05:30.136Z,36.22
2023-02-24T22:08:34.193Z,31.38
2023-02-24T22:11:40.257Z,31.08
2023-02-24T22:14:43.962Z,33.50
2023-02-24T22:17:47.353Z,29.05
2023-02-24T22:20:50.686Z,26.63
2023-02-24T22:23:57.505Z,25.88
2023-02-24T22:27:01.777Z,29.58
2023-02-24T22:30:08.410Z,26.25
2023-02-24T22:33:11.985Z,25.00
2023-02-24T22:36:17.879Z,30.55
2023-02-24T22:39:21.225Z,34.92
2023-02-24T22:42:24.175Z,28.90
2023-02-24T22:45:28.022Z,26.85
2023-02-24T22:48:32.645Z,23.65
2023-02-24T22:51:36.765Z,28.02
2023-02-24T22:54:40.042Z,25.58
2023-02-24T22:57:44.049Z,25.00
2023-02-24T23:00:48.352Z,27.55
2023-02-24T23:03:53.082Z,27.05
2023-02-24T23:06:57.755Z,23.35
2023-02-24T23:10:01.700Z,26.40
2023-02-24T23:13:05.459Z,27.58
2023-02-24T23:16:14.842Z,23.63
2023-02-24T23:19:18.647Z,25.50
2023-02-24T23:22:22.742Z,26.45
2023-02-24T23:25:26.436Z,26.00
2023-02-24T23:28:31.285Z,27.83
2023-02-24T23:31:34.632Z,24.23
2023-02-24T23:34:39.069Z,24.00
2023-02-24T23:37:42.893Z,22.85
2023-02-24T23:40:50.470Z,24.30
2023-02-24T23:43:54.594Z,21.77
2023-02-24T23:46:59.484Z,26.77
2023-02-24T23:50:03.837Z,30.42
2023-02-24T23:53:08.568Z,28.50
2023-02-24T23:56:32.223Z,28.35
2023-02-24T23:59:36.671Z,25.75
